sensor_id;sensor_type;location;lat;lon;timestamp;pressure;altitude;pressure_sealevel;temperature;humidity
77149;BME280;66122;47.130;16.844;2023-09-18T00:06:42;99811.50;;;15.79;100.00
77149;BME280;66122;47.130;16.844;2023-09-18T00:16:44;99807.44;;;15.62;100.00
77149;BME280;66122;47.130;16.844;2023-09-18T00:27:00;99804.72;;;15.75;100.00
77149;BME280;66122;47.130;16.844;2023-09-18T00:37:02;99801.13;;;15.50;100.00
77149;BME280;66122;47.130;16.844;2023-09-18T00:47:07;99804.94;;;15.72;100.00
77149;BME280;66122;47.130;16.844;2023-09-18T00:57:10;99781.44;;;15.88;100.00
77149;BME280;66122;47.130;16.844;2023-09-18T01:07:13;99784.28;;;15.74;100.00
77149;BME280;66122;47.130;16.844;2023-09-18T01:17:16;99769.91;;;15.63;100.00
77149;BME280;66122;47.130;16.844;2023-09-18T01:27:19;99776.97;;;15.28;100.00
77149;BME280;66122;47.130;16.844;2023-09-18T01:37:27;99774.66;;;15.47;100.00
77149;BME280;66122;47.130;16.844;2023-09-18T01:47:30;99761.63;;;15.19;100.00
77149;BME280;66122;47.130;16.844;2023-09-18T01:57:32;99760.53;;;15.34;100.00
77149;BME280;66122;47.130;16.844;2023-09-18T02:07:35;99751.19;;;15.40;100.00
77149;BME280;66122;47.130;16.844;2023-09-18T02:17:38;99740.13;;;15.20;100.00
77149;BME280;66122;47.130;16.844;2023-09-18T02:27:41;99734.78;;;14.97;100.00
77149;BME280;66122;47.130;16.844;2023-09-18T02:37:46;99731.22;;;15.09;100.00
77149;BME280;66122;47.130;16.844;2023-09-18T02:47:49;99744.13;;;15.15;100.00
77149;BME280;66122;47.130;16.844;2023-09-18T02:57:51;99736.50;;;15.21;100.00
77149;BME280;66122;47.130;16.844;2023-09-18T03:07:54;99729.75;;;15.05;100.00
77149;BME280;66122;47.130;16.844;2023-09-18T03:17:57;99718.44;;;15.01;100.00
77149;BME280;66122;47.130;16.844;2023-09-18T03:28:01;99714.81;;;15.02;100.00
77149;BME280;66122;47.130;16.844;2023-09-18T03:38:06;99715.22;;;15.09;100.00
77149;BME280;66122;47.130;16.844;2023-09-18T03:48:09;99727.53;;;15.22;100.00
77149;BME280;66122;47.130;16.844;2023-09-18T03:58:12;99698.91;;;15.24;100.00
77149;BME280;66122;47.130;16.844;2023-09-18T04:08:15;99698.25;;;15.34;100.00
77149;BME280;66122;47.130;16.844;2023-09-18T04:18:18;99689.06;;;15.73;100.00
77149;BME280;66122;47.130;16.844;2023-09-18T04:28:21;99684.00;;;15.81;100.00
77149;BME280;66122;47.130;16.844;2023-09-18T04:38:25;99681.38;;;16.03;100.00
77149;BME280;66122;47.130;16.844;2023-09-18T04:48:29;99681.97;;;16.07;100.00
77149;BME280;66122;47.130;16.844;2023-09-18T04:58:40;99679.91;;;16.21;100.00
77149;BME280;66122;47.130;16.844;2023-09-18T05:08:43;99687.97;;;16.32;100.00
77149;BME280;66122;47.130;16.844;2023-09-18T05:18:46;99685.44;;;16.75;100.00
77149;BME280;66122;47.130;16.844;2023-09-18T05:28:49;99643.38;;;17.09;100.00
77149;BME280;66122;47.130;16.844;2023-09-18T05:38:53;99634.56;;;17.50;100.00
77149;BME280;66122;47.130;16.844;2023-09-18T05:48:56;99626.31;;;18.05;100.00
77149;BME280;66122;47.130;16.844;2023-09-18T05:59:02;99624.34;;;18.37;100.00
77149;BME280;66122;47.130;16.844;2023-09-18T06:09:05;99597.25;;;18.80;100.00
77149;BME280;66122;47.130;16.844;2023-09-18T06:19:08;99619.59;;;19.00;100.00
77149;BME280;66122;47.130;16.844;2023-09-18T06:29:10;99615.53;;;19.44;100.00
77149;BME280;66122;47.130;16.844;2023-09-18T06:39:13;99621.97;;;19.99;100.00
77149;BME280;66122;47.130;16.844;2023-09-18T06:49:16;99628.47;;;19.97;100.00
77149;BME280;66122;47.130;16.844;2023-09-18T06:59:22;99637.16;;;20.27;98.51
77149;BME280;66122;47.130;16.844;2023-09-18T07:09:30;99626.03;;;20.59;97.97
77149;BME280;66122;47.130;16.844;2023-09-18T07:19:35;99629.78;;;20.94;96.64
77149;BME280;66122;47.130;16.844;2023-09-18T07:29:38;99633.59;;;21.19;95.50
77149;BME280;66122;47.130;16.844;2023-09-18T07:39:41;99614.16;;;21.15;96.51
77149;BME280;66122;47.130;16.844;2023-09-18T07:49:46;99633.53;;;21.28;91.91
77149;BME280;66122;47.130;16.844;2023-09-18T07:59:49;99624.91;;;21.60;91.67
77149;BME280;66122;47.130;16.844;2023-09-18T08:09:54;99613.31;;;21.68;88.60
77149;BME280;66122;47.130;16.844;2023-09-18T08:19:56;99614.19;;;21.94;88.64
77149;BME280;66122;47.130;16.844;2023-09-18T08:30:01;99616.38;;;22.50;84.88
77149;BME280;66122;47.130;16.844;2023-09-18T08:40:04;99609.44;;;22.98;83.37
77149;BME280;66122;47.130;16.844;2023-09-18T08:50:13;99606.31;;;23.35;81.66
77149;BME280;66122;47.130;16.844;2023-09-18T09:00:16;99605.19;;;23.70;80.21
77149;BME280;66122;47.130;16.844;2023-09-18T09:10:19;99594.06;;;24.28;76.05
77149;BME280;66122;47.130;16.844;2023-09-18T09:20:22;99592.47;;;24.50;76.45
77149;BME280;66122;47.130;16.844;2023-09-18T09:30:27;99566.84;;;25.00;73.38
77149;BME280;66122;47.130;16.844;2023-09-18T09:40:30;99550.41;;;26.28;67.42
77149;BME280;66122;47.130;16.844;2023-09-18T09:50:34;99563.63;;;25.79;69.36
77149;BME280;66122;47.130;16.844;2023-09-18T10:00:47;99539.13;;;26.31;66.85
77149;BME280;66122;47.130;16.844;2023-09-18T10:10:54;99513.91;;;26.37;67.16
77149;BME280;66122;47.130;16.844;2023-09-18T10:21:08;99477.63;;;26.45;64.47
77149;BME280;66122;47.130;16.844;2023-09-18T10:31:13;99465.31;;;26.64;64.29
77149;BME280;66122;47.130;16.844;2023-09-18T10:41:16;99447.97;;;26.14;63.87
77149;BME280;66122;47.130;16.844;2023-09-18T10:51:23;99448.59;;;26.88;61.05
77149;BME280;66122;47.130;16.844;2023-09-18T11:01:28;99446.06;;;25.64;67.59
77149;BME280;66122;47.130;16.844;2023-09-18T11:11:31;99444.97;;;26.09;66.98
77149;BME280;66122;47.130;16.844;2023-09-18T11:21:39;99427.84;;;25.35;70.89
77149;BME280;66122;47.130;16.844;2023-09-18T11:41:50;99425.44;;;25.03;72.09
77149;BME280;66122;47.130;16.844;2023-09-18T11:51:54;99394.03;;;25.23;69.54
77149;BME280;66122;47.130;16.844;2023-09-18T12:01:56;99397.81;;;25.66;69.38
77149;BME280;66122;47.130;16.844;2023-09-18T12:12:14;99372.28;;;25.60;67.82
77149;BME280;66122;47.130;16.844;2023-09-18T12:22:26;99337.28;;;25.87;64.89
77149;BME280;66122;47.130;16.844;2023-09-18T12:32:32;99362.09;;;26.77;61.64
77149;BME280;66122;47.130;16.844;2023-09-18T12:42:39;99357.03;;;26.74;61.41
77149;BME280;66122;47.130;16.844;2023-09-18T12:52:45;99354.16;;;26.54;62.25
77149;BME280;66122;47.130;16.844;2023-09-18T13:02:49;99320.06;;;27.01;61.71
77149;BME280;66122;47.130;16.844;2023-09-18T13:12:58;99326.31;;;26.31;64.26
77149;BME280;66122;47.130;16.844;2023-09-18T13:23:05;99303.75;;;27.42;60.64
77149;BME280;66122;47.130;16.844;2023-09-18T13:33:09;99257.53;;;26.30;64.21
77149;BME280;66122;47.130;16.844;2023-09-18T13:43:14;99271.03;;;27.76;59.75
77149;BME280;66122;47.130;16.844;2023-09-18T13:53:21;99265.41;;;26.04;68.10
77149;BME280;66122;47.130;16.844;2023-09-18T14:03:24;99250.19;;;28.43;60.34
77149;BME280;66122;47.130;16.844;2023-09-18T14:13:27;99237.16;;;28.31;60.15
77149;BME280;66122;47.130;16.844;2023-09-18T14:23:30;99199.25;;;28.23;60.64
77149;BME280;66122;47.130;16.844;2023-09-18T14:33:36;99197.31;;;26.89;66.36
77149;BME280;66122;47.130;16.844;2023-09-18T14:43:40;99175.41;;;26.07;68.43
77149;BME280;66122;47.130;16.844;2023-09-18T14:53:42;99157.16;;;25.58;69.32
77149;BME280;66122;47.130;16.844;2023-09-18T15:03:45;99142.41;;;25.46;67.79
77149;BME280;66122;47.130;16.844;2023-09-18T15:13:48;99142.50;;;25.17;71.05
77149;BME280;66122;47.130;16.844;2023-09-18T15:23:52;99145.06;;;25.04;73.66
77149;BME280;66122;47.130;16.844;2023-09-18T15:33:54;99129.28;;;25.28;72.14
77149;BME280;66122;47.130;16.844;2023-09-18T15:43:57;99097.09;;;25.04;71.36
77149;BME280;66122;47.130;16.844;2023-09-18T15:54:00;99113.00;;;24.93;72.02
77149;BME280;66122;47.130;16.844;2023-09-18T16:04:02;99078.94;;;24.54;73.83
77149;BME280;66122;47.130;16.844;2023-09-18T16:14:05;99092.22;;;24.20;76.07
77149;BME280;66122;47.130;16.844;2023-09-18T16:24:09;99102.75;;;23.92;78.21
77149;BME280;66122;47.130;16.844;2023-09-18T16:34:12;99049.72;;;23.45;81.25
77149;BME280;66122;47.130;16.844;2023-09-18T16:44:14;99073.41;;;23.43;81.68
77149;BME280;66122;47.130;16.844;2023-09-18T16:54:20;99067.66;;;23.23;82.53
77149;BME280;66122;47.130;16.844;2023-09-18T17:04:25;99057.97;;;23.06;84.27
77149;BME280;66122;47.130;16.844;2023-09-18T17:14:28;99064.09;;;23.00;85.47
77149;BME280;66122;47.130;16.844;2023-09-18T17:24:31;99086.09;;;22.97;84.87
77149;BME280;66122;47.130;16.844;2023-09-18T17:34:37;99072.78;;;22.87;85.94
77149;BME280;66122;47.130;16.844;2023-09-18T17:44:39;99051.25;;;22.63;87.52
77149;BME280;66122;47.130;16.844;2023-09-18T17:54:42;99058.03;;;22.59;87.67
77149;BME280;66122;47.130;16.844;2023-09-18T18:04:44;99045.41;;;22.51;89.00
77149;BME280;66122;47.130;16.844;2023-09-18T18:14:48;99050.19;;;22.41;89.26
77149;BME280;66122;47.130;16.844;2023-09-18T18:24:52;99034.75;;;22.19;91.44
77149;BME280;66122;47.130;16.844;2023-09-18T18:34:56;99048.91;;;22.21;91.42
77149;BME280;66122;47.130;16.844;2023-09-18T18:44:58;99056.91;;;21.98;92.09
77149;BME280;66122;47.130;16.844;2023-09-18T18:55:02;99073.97;;;21.83;92.85
77149;BME280;66122;47.130;16.844;2023-09-18T19:05:06;99071.59;;;21.71;93.97
77149;BME280;66122;47.130;16.844;2023-09-18T19:15:12;99090.66;;;21.62;95.13
77149;BME280;66122;47.130;16.844;2023-09-18T19:25:15;99097.25;;;21.75;93.28
77149;BME280;66122;47.130;16.844;2023-09-18T19:35:19;99097.56;;;21.56;93.55
77149;BME280;66122;47.130;16.844;2023-09-18T19:45:22;99104.97;;;21.54;93.90
77149;BME280;66122;47.130;16.844;2023-09-18T19:55:26;99116.13;;;21.51;94.01
77149;BME280;66122;47.130;16.844;2023-09-18T20:05:31;99122.88;;;21.39;94.36
77149;BME280;66122;47.130;16.844;2023-09-18T20:15:35;99119.50;;;21.45;93.12
77149;BME280;66122;47.130;16.844;2023-09-18T20:25:38;99111.06;;;21.32;93.64
77149;BME280;66122;47.130;16.844;2023-09-18T20:35:41;99130.41;;;21.27;94.37
77149;BME280;66122;47.130;16.844;2023-09-18T20:45:44;99114.66;;;20.98;97.09
77149;BME280;66122;47.130;16.844;2023-09-18T20:55:47;99127.09;;;20.91;99.83
77149;BME280;66122;47.130;16.844;2023-09-18T21:05:53;99145.25;;;20.81;98.86
77149;BME280;66122;47.130;16.844;2023-09-18T21:15:56;99142.56;;;20.81;97.54
77149;BME280;66122;47.130;16.844;2023-09-18T21:26:05;99142.38;;;20.75;97.48
77149;BME280;66122;47.130;16.844;2023-09-18T21:46:16;99139.59;;;20.58;97.85
77149;BME280;66122;47.130;16.844;2023-09-18T21:56:18;99130.13;;;20.20;100.00
77149;BME280;66122;47.130;16.844;2023-09-18T22:06:22;99141.41;;;19.98;100.00
77149;BME280;66122;47.130;16.844;2023-09-18T22:16:25;99157.81;;;19.87;100.00
77149;BME280;66122;47.130;16.844;2023-09-18T22:26:27;99142.38;;;19.71;100.00
77149;BME280;66122;47.130;16.844;2023-09-18T22:36:31;99142.72;;;19.51;100.00
77149;BME280;66122;47.130;16.844;2023-09-18T22:57:14;99115.56;;;19.26;100.00
77149;BME280;66122;47.130;16.844;2023-09-18T23:07:17;99129.09;;;19.34;100.00
77149;BME280;66122;47.130;16.844;2023-09-18T23:17:20;99128.59;;;19.03;100.00
77149;BME280;66122;47.130;16.844;2023-09-18T23:27:23;99112.38;;;18.78;100.00
77149;BME280;66122;47.130;16.844;2023-09-18T23:37:29;99148.25;;;18.86;100.00
77149;BME280;66122;47.130;16.844;2023-09-18T23:47:31;99136.97;;;19.00;100.00
77149;BME280;66122;47.130;16.844;2023-09-18T23:57:37;99160.31;;;19.00;100.00
